首页
METAR-TAF:

METAR-TAF

机场 :

Chicago Rockford International Airport

罗克福德, 伊利诺伊州, 美国

纬度: 42-11-34N, 经度: 089-05-36W, 海拔: 224米

当前天气观测

该预报发布于45分钟前的05:54 UTC
风速5节,风向西北
温度 1°C
湿度 93%
气压 1009 hPa
能見度: 1.6公里
少量云层高于400英尺
阴天层高于900英尺
小雪, 轻雾

METAR: KRFD 250554Z 31005KT 1SM R01/6000VP6000FT -SN BR FEW004 OVC009 01/00 A2980 RMK AO2 SLP097 SNINCR 1/6 4/006 P0008 60036 T00060000 10017 20006 400330006 56003 $

时间: 00:39 (06:39 UTC)

预报

该预报发布于1小时和7分钟前的05:32 UTC
预报有效从25日的 06点(UTC)到 26日的 06点(UTC)
风速6节,风向西转西北
能見度: 1.6公里
阴天层高于400英尺
小雪, 轻雾
从 25日的 1200点(UTC)
风速10节,风向西
能見度: 2.4公里
阴天层高于500英尺
小雪
从 25日的 1800点(UTC)
风速12节,风向西转西北
能見度: 1.6公里
阴天层高于600英尺
小雪
从 25日的 2100点(UTC)
风速11节,风向西转西北
能見度: 1.6公里
阴天层高于700英尺
小雪, 毛毛雨
从 26日的 0300点(UTC)
风速10节,风向西
能見度: 10公里
阴天层高于800英尺

TAF: KRFD 250532Z 2506/2606 30006KT 1SM -SN BR OVC004 FM251200 28010KT 1 1/2SM -SN OVC005 FM251800 29012KT 3SM -SN OVC006 FM252100 29011KT 5SM -SNDZ OVC007 FM260300 28010KT P6SM OVC008

超过4000个机场的气象观测和天气预报(METAR&TAF报告)。

可查询的气象台以黄色和红色小点在地图上表示。

将鼠标移到小点上方,可查看气象台名称。

然后点击查看天气观测和预报。

如需切换地图:点击带黑十字的绿色按钮放大地图;点击带横线的绿色按钮缩小地图;或者点击绿色箭头查看邻近地区的地图。


METAR-TAF: